createdAt,value
2019-05-25T00:02:46.043Z,100.00
2019-05-25T00:05:15.315Z,100.00
2019-05-25T00:07:44.621Z,100.00
2019-05-25T00:10:14.038Z,100.00
2019-05-25T00:12:43.334Z,100.00
2019-05-25T00:15:12.748Z,100.00
2019-05-25T00:17:42.058Z,100.00
2019-05-25T00:20:50.683Z,100.00
2019-05-25T00:23:20.043Z,100.00
2019-05-25T00:25:49.349Z,100.00
2019-05-25T00:28:18.688Z,100.00
2019-05-25T00:30:47.982Z,100.00
2019-05-25T00:33:17.291Z,100.00
2019-05-25T00:35:46.600Z,100.00
2019-05-25T00:38:15.936Z,100.00
2019-05-25T00:40:45.250Z,100.00
2019-05-25T00:43:14.554Z,100.00
2019-05-25T00:45:43.882Z,100.00
2019-05-25T00:48:13.184Z,100.00
2019-05-25T00:50:42.495Z,100.00
2019-05-25T00:53:11.815Z,100.00
2019-05-25T00:55:41.145Z,100.00
2019-05-25T00:58:10.466Z,100.00
2019-05-25T01:00:39.778Z,100.00
2019-05-25T01:03:09.084Z,100.00
2019-05-25T01:05:38.415Z,100.00
2019-05-25T01:08:07.706Z,100.00
2019-05-25T01:10:37.034Z,100.00
2019-05-25T01:13:06.339Z,100.00
2019-05-25T01:15:35.646Z,100.00
2019-05-25T01:18:05.071Z,100.00
2019-05-25T01:20:34.367Z,100.00
2019-05-25T01:23:03.693Z,100.00
2019-05-25T01:25:33.018Z,100.00
2019-05-25T01:28:02.324Z,100.00
2019-05-25T01:30:31.641Z,100.00
2019-05-25T01:33:00.937Z,100.00
2019-05-25T01:35:30.249Z,100.00
2019-05-25T01:37:59.551Z,100.00
2019-05-25T01:40:28.851Z,100.00
2019-05-25T01:42:58.190Z,100.00
2019-05-25T01:45:27.485Z,100.00
2019-05-25T01:47:56.791Z,100.00
2019-05-25T01:50:26.101Z,100.00
2019-05-25T01:52:55.420Z,100.00
2019-05-25T01:55:24.734Z,100.00
2019-05-25T01:58:12.973Z,100.00
2019-05-25T02:00:42.313Z,100.00
2019-05-25T02:03:11.613Z,100.00
2019-05-25T02:05:40.948Z,100.00
2019-05-25T02:08:10.255Z,100.00
2019-05-25T02:10:39.579Z,100.00
2019-05-25T02:13:08.881Z,100.00
2019-05-25T02:15:38.210Z,100.00
2019-05-25T02:18:07.529Z,100.00
2019-05-25T02:23:25.114Z,100.00
2019-05-25T02:25:54.474Z,100.00
2019-05-25T02:28:23.777Z,100.00
2019-05-25T02:30:53.092Z,100.00
2019-05-25T02:33:22.415Z,100.00
2019-05-25T02:35:51.735Z,100.00
2019-05-25T02:41:09.393Z,100.00
2019-05-25T02:43:38.695Z,100.00
2019-05-25T02:46:08.018Z,100.00
2019-05-25T02:48:37.318Z,100.00
2019-05-25T02:51:06.611Z,100.00
2019-05-25T02:53:35.934Z,100.00
2019-05-25T02:56:05.295Z,100.00
2019-05-25T02:58:34.599Z,100.00
2019-05-25T03:03:59.485Z,100.00
2019-05-25T03:06:49.223Z,100.00
2019-05-25T03:09:57.844Z,100.00
2019-05-25T03:12:37.746Z,100.00
2019-05-25T03:15:07.423Z,100.00
2019-05-25T03:17:36.779Z,100.00
2019-05-25T03:20:45.678Z,100.00
2019-05-25T03:23:14.985Z,100.00
2019-05-25T03:25:49.502Z,100.00
2019-05-25T03:28:15.379Z,100.00
2019-05-25T03:30:44.648Z,100.00
2019-05-25T03:33:13.970Z,100.00
2019-05-25T03:35:43.305Z,100.00
2019-05-25T03:38:12.669Z,100.00
2019-05-25T03:40:41.989Z,100.00
2019-05-25T03:43:11.287Z,100.00
2019-05-25T03:45:40.609Z,100.00
2019-05-25T03:48:09.914Z,100.00
2019-05-25T03:50:39.217Z,100.00
2019-05-25T03:53:08.551Z,100.00
2019-05-25T03:55:37.866Z,100.00
2019-05-25T03:58:07.178Z,100.00
2019-05-25T04:03:50.880Z,100.00
2019-05-25T04:06:20.231Z,100.00
2019-05-25T04:08:49.495Z,100.00
2019-05-25T04:11:18.870Z,100.00
2019-05-25T04:13:48.201Z,100.00
2019-05-25T04:16:17.513Z,100.00
2019-05-25T04:18:46.816Z,100.00
2019-05-25T04:21:16.114Z,100.00
2019-05-25T04:23:45.425Z,100.00
2019-05-25T04:26:22.463Z,100.00
2019-05-25T04:28:45.765Z,100.00
2019-05-25T04:31:15.088Z,100.00
2019-05-25T04:33:44.370Z,100.00
2019-05-25T04:36:13.723Z,100.00
2019-05-25T04:38:43.051Z,100.00
2019-05-25T04:41:31.358Z,100.00
2019-05-25T04:44:00.663Z,100.00
2019-05-25T04:46:29.971Z,100.00
2019-05-25T04:48:59.297Z,100.00
2019-05-25T04:51:28.605Z,100.00
2019-05-25T04:53:57.927Z,100.00
2019-05-25T04:56:46.115Z,100.00
2019-05-25T04:59:15.458Z,100.00
2019-05-25T05:01:56.215Z,100.00
2019-05-25T05:04:25.601Z,100.00
2019-05-25T05:09:43.206Z,100.00
2019-05-25T05:12:12.510Z,100.00
2019-05-25T05:14:41.872Z,99.81
2019-05-25T05:17:11.222Z,100.00
2019-05-25T05:19:59.568Z,99.73
2019-05-25T05:27:59.208Z,99.39
2019-05-25T05:30:47.564Z,98.38
2019-05-25T05:33:16.872Z,97.83
2019-05-25T05:36:25.481Z,96.57
2019-05-25T05:39:34.120Z,95.41
2019-05-25T05:45:17.738Z,95.80
2019-05-25T05:48:26.382Z,94.86
2019-05-25T05:51:35.007Z,93.93
2019-05-25T05:57:18.517Z,92.76
2019-05-25T05:59:47.812Z,93.18
2019-05-25T06:02:17.132Z,93.66
2019-05-25T06:04:46.438Z,94.16
2019-05-25T06:07:15.763Z,93.08
2019-05-25T06:09:45.117Z,93.70
2019-05-25T06:12:14.437Z,92.32
2019-05-25T06:14:43.805Z,92.29
2019-05-25T06:17:13.095Z,92.21
2019-05-25T06:19:42.395Z,91.21
2019-05-25T06:22:11.723Z,91.65
2019-05-25T06:24:41.025Z,90.90
2019-05-25T06:27:10.341Z,90.26
2019-05-25T06:29:39.668Z,91.51
2019-05-25T06:32:08.996Z,91.08
2019-05-25T06:40:02.182Z,91.30
2019-05-25T06:45:08.331Z,89.97
2019-05-25T06:47:27.108Z,89.59
2019-05-25T06:49:56.435Z,88.73
2019-05-25T06:52:25.746Z,90.06
2019-05-25T06:54:55.119Z,89.48
2019-05-25T06:57:24.424Z,86.77
2019-05-25T07:00:05.945Z,86.92
2019-05-25T07:02:24.799Z,87.21
2019-05-25T07:04:54.176Z,86.35
2019-05-25T07:07:23.515Z,87.40
2019-05-25T07:09:52.873Z,86.22
2019-05-25T07:12:22.228Z,86.14
2019-05-25T07:14:51.644Z,85.93
2019-05-25T07:17:21.020Z,86.63
2019-05-25T07:20:02.312Z,86.09
2019-05-25T07:22:21.372Z,86.45
2019-05-25T07:24:50.712Z,85.61
2019-05-25T07:27:20.134Z,85.65
2019-05-25T07:29:49.453Z,84.60
2019-05-25T07:32:18.798Z,86.08
2019-05-25T07:34:48.345Z,85.85
2019-05-25T07:37:17.656Z,85.39
2019-05-25T07:39:47.096Z,85.77
2019-05-25T07:42:19.807Z,85.53
2019-05-25T07:44:47.436Z,85.29
2019-05-25T07:47:16.778Z,84.64
2019-05-25T07:50:05.049Z,84.69
2019-05-25T07:55:30.452Z,83.13
2019-05-25T07:58:15.864Z,83.46
2019-05-25T08:00:41.666Z,83.34
2019-05-25T08:03:10.997Z,82.36
2019-05-25T08:05:40.369Z,83.07
2019-05-25T08:08:09.687Z,81.89
2019-05-25T08:10:39.043Z,81.28
2019-05-25T08:13:08.368Z,80.71
2019-05-25T08:15:37.700Z,81.48
2019-05-25T08:20:55.349Z,79.83
2019-05-25T08:23:24.676Z,79.45
2019-05-25T08:25:54.111Z,79.64
2019-05-25T08:28:32.142Z,80.71
2019-05-25T08:30:54.466Z,80.56
2019-05-25T08:33:29.421Z,81.08
2019-05-25T08:38:33.972Z,79.08
2019-05-25T08:41:03.319Z,80.23
2019-05-25T08:43:32.681Z,79.07
2019-05-25T08:46:02.014Z,79.60
2019-05-25T08:48:31.376Z,79.29
2019-05-25T08:51:00.786Z,78.18
2019-05-25T08:53:40.751Z,79.13
2019-05-25T08:56:01.246Z,78.44
2019-05-25T08:58:47.489Z,76.49
2019-05-25T09:09:23.662Z,77.81
2019-05-25T09:12:11.937Z,75.42
2019-05-25T09:15:20.578Z,77.43
2019-05-25T09:17:49.911Z,77.15
2019-05-25T09:22:54.036Z,77.76
2019-05-25T09:27:58.368Z,77.76
2019-05-25T09:30:27.824Z,75.91
2019-05-25T09:35:52.450Z,78.67
2019-05-25T09:38:21.914Z,78.93
2019-05-25T09:40:51.311Z,78.67
2019-05-25T09:43:20.746Z,78.03
2019-05-25T09:45:50.089Z,76.98
2019-05-25T09:48:19.453Z,77.74
2019-05-25T09:50:48.828Z,77.66
2019-05-25T09:53:18.133Z,76.73
2019-05-25T09:55:49.904Z,77.50
2019-05-25T09:58:19.265Z,76.34
2019-05-25T10:00:48.671Z,76.36
2019-05-25T10:06:12.102Z,75.55
2019-05-25T10:08:37.474Z,77.10
2019-05-25T10:11:06.837Z,76.73
2019-05-25T10:13:36.172Z,76.91
2019-05-25T10:16:05.569Z,76.54
2019-05-25T10:18:34.912Z,76.96
2019-05-25T10:21:04.231Z,77.15
2019-05-25T10:23:33.547Z,75.37
2019-05-25T10:26:02.891Z,75.41
2019-05-25T10:28:51.262Z,76.32
2019-05-25T10:31:20.579Z,77.22
2019-05-25T10:33:49.909Z,76.90
2019-05-25T10:36:19.220Z,75.44
2019-05-25T10:38:48.546Z,75.68
2019-05-25T10:41:17.931Z,74.34
2019-05-25T10:43:47.320Z,74.15
2019-05-25T10:46:16.649Z,72.36
2019-05-25T10:48:45.971Z,73.69
2019-05-25T10:51:15.338Z,74.50
2019-05-25T10:53:44.666Z,74.98
2019-05-25T10:56:14.001Z,74.80
2019-05-25T10:59:02.374Z,73.63
2019-05-25T11:01:31.765Z,73.74
2019-05-25T11:04:01.076Z,74.55
2019-05-25T11:09:45.294Z,75.22
2019-05-25T11:12:14.618Z,74.59
2019-05-25T11:14:44.034Z,72.60
2019-05-25T11:17:13.345Z,74.10
2019-05-25T11:19:42.704Z,74.45
2019-05-25T11:22:12.031Z,74.21
2019-05-25T11:24:41.447Z,73.07
2019-05-25T11:27:10.753Z,73.33
2019-05-25T11:29:40.074Z,73.08
2019-05-25T11:32:09.437Z,73.97
2019-05-25T11:34:38.831Z,71.30
2019-05-25T11:37:08.171Z,73.26
2019-05-25T11:39:37.564Z,72.27
2019-05-25T11:42:06.889Z,69.97
2019-05-25T11:44:36.222Z,72.67
2019-05-25T11:47:05.534Z,72.77
2019-05-25T11:49:34.871Z,72.21
2019-05-25T11:52:23.079Z,72.42
2019-05-25T11:57:32.869Z,72.04
2019-05-25T12:00:02.182Z,72.92
2019-05-25T12:02:31.534Z,72.28
2019-05-25T12:05:15.149Z,72.25
2019-05-25T12:07:34.030Z,72.31
2019-05-25T12:10:23.755Z,70.17
2019-05-25T12:12:53.156Z,72.38
2019-05-25T12:15:25.471Z,71.28
2019-05-25T12:17:54.886Z,72.10
2019-05-25T12:20:24.298Z,72.13
2019-05-25T12:22:53.670Z,71.25
2019-05-25T12:25:23.142Z,72.14
2019-05-25T12:27:55.428Z,71.06
2019-05-25T12:31:06.398Z,71.60
2019-05-25T12:39:46.385Z,71.71
2019-05-25T12:42:15.725Z,71.13
2019-05-25T12:47:23.207Z,68.69
2019-05-25T12:49:52.548Z,70.00
2019-05-25T12:52:21.953Z,70.42
2019-05-25T12:54:51.351Z,70.38
2019-05-25T12:57:59.991Z,70.52
2019-05-25T13:00:29.396Z,69.22
2019-05-25T13:02:59.616Z,68.70
2019-05-25T13:05:34.269Z,68.57
2019-05-25T13:08:00.953Z,70.04
2019-05-25T13:10:30.319Z,70.76
2019-05-25T13:13:02.039Z,70.96
2019-05-25T13:15:30.739Z,68.39
2019-05-25T13:18:00.094Z,69.46
2019-05-25T13:20:29.422Z,70.72
2019-05-25T13:22:58.744Z,71.05
2019-05-25T13:25:28.360Z,70.65
2019-05-25T13:27:57.707Z,70.28
2019-05-25T13:30:27.066Z,71.32
2019-05-25T13:32:56.483Z,70.57
2019-05-25T13:35:25.796Z,70.34
2019-05-25T13:37:55.148Z,69.91
2019-05-25T13:40:24.482Z,68.30
2019-05-25T13:42:53.810Z,68.12
2019-05-25T13:45:23.140Z,65.17
2019-05-25T13:47:52.475Z,65.61
2019-05-25T13:50:21.858Z,65.82
2019-05-25T13:52:51.185Z,66.18
2019-05-25T13:55:20.524Z,64.04
2019-05-25T13:57:49.880Z,63.95
2019-05-25T14:00:19.295Z,63.47
2019-05-25T14:02:48.602Z,64.10
2019-05-25T14:05:36.987Z,63.40
2019-05-25T14:08:25.781Z,63.40
2019-05-25T14:10:55.083Z,65.13
2019-05-25T14:13:43.365Z,65.45
2019-05-25T14:16:12.725Z,65.37
2019-05-25T14:18:42.085Z,63.66
2019-05-25T14:23:46.520Z,65.29
2019-05-25T14:26:16.147Z,66.03
2019-05-25T14:28:45.534Z,66.50
2019-05-25T14:31:14.850Z,66.78
2019-05-25T14:33:44.197Z,66.60
2019-05-25T14:36:13.525Z,68.03
2019-05-25T14:38:42.895Z,68.08
2019-05-25T14:41:12.308Z,66.55
2019-05-25T14:43:41.634Z,66.41
2019-05-25T14:46:26.623Z,67.44
2019-05-25T14:48:54.596Z,64.90
2019-05-25T14:51:13.252Z,67.09
2019-05-25T14:53:42.565Z,67.20
2019-05-25T14:56:11.894Z,66.42
2019-05-25T14:58:41.280Z,64.39
2019-05-25T15:01:10.602Z,66.39
2019-05-25T15:03:39.914Z,66.62
2019-05-25T15:06:09.272Z,67.17
2019-05-25T15:08:38.602Z,66.98
2019-05-25T15:11:07.950Z,67.25
2019-05-25T15:13:37.346Z,67.79
2019-05-25T15:16:25.202Z,67.96
2019-05-25T15:18:54.542Z,67.91
2019-05-25T15:21:24.153Z,68.19
2019-05-25T15:23:53.511Z,68.54
2019-05-25T15:26:22.845Z,68.34
2019-05-25T15:28:52.376Z,69.83
2019-05-25T15:31:21.711Z,69.81
2019-05-25T15:33:51.022Z,70.20
2019-05-25T15:36:20.426Z,69.87
2019-05-25T15:38:49.812Z,69.88
2019-05-25T15:41:19.193Z,69.62
2019-05-25T15:43:48.511Z,70.13
2019-05-25T15:46:17.813Z,70.15
2019-05-25T15:51:35.465Z,70.72
2019-05-25T15:54:04.797Z,70.72
2019-05-25T15:56:34.106Z,71.00
2019-05-25T15:59:03.426Z,70.74
2019-05-25T16:01:32.716Z,70.13
2019-05-25T16:04:02.045Z,71.07
2019-05-25T16:06:31.356Z,71.20
2019-05-25T16:09:00.784Z,70.60
2019-05-25T16:11:32.169Z,71.97
2019-05-25T16:14:01.195Z,72.23
2019-05-25T16:16:30.525Z,72.93
2019-05-25T16:18:59.861Z,72.74
2019-05-25T16:24:03.775Z,72.30
2019-05-25T16:26:45.672Z,72.56
2019-05-25T16:29:04.142Z,72.49
2019-05-25T16:31:33.480Z,72.97
2019-05-25T16:34:02.781Z,73.27
2019-05-25T16:36:32.129Z,73.80
2019-05-25T16:39:01.439Z,74.30
2019-05-25T16:41:30.796Z,74.54
2019-05-25T16:44:00.097Z,74.30
2019-05-25T16:46:29.429Z,74.23
2019-05-25T16:48:58.762Z,74.27
2019-05-25T16:54:16.410Z,73.92
2019-05-25T16:56:45.779Z,73.53
2019-05-25T16:59:15.131Z,73.16
2019-05-25T17:01:48.559Z,72.85
2019-05-25T17:04:15.520Z,72.34
2019-05-25T17:06:44.879Z,72.35
2019-05-25T17:12:02.463Z,72.26
2019-05-25T17:14:31.826Z,72.17
2019-05-25T17:17:13.155Z,72.47
2019-05-25T17:19:32.173Z,73.40
2019-05-25T17:22:01.473Z,73.39
2019-05-25T17:24:30.879Z,73.29
2019-05-25T17:27:00.185Z,73.52
2019-05-25T17:29:29.480Z,73.38
2019-05-25T17:31:58.814Z,73.39
2019-05-25T17:34:28.102Z,72.70
2019-05-25T17:36:57.432Z,73.02
2019-05-25T17:39:26.761Z,73.17
2019-05-25T17:41:57.827Z,72.71
2019-05-25T17:47:01.685Z,72.82
2019-05-25T17:49:30.987Z,72.73
2019-05-25T17:52:00.343Z,73.54
2019-05-25T17:54:29.651Z,74.12
2019-05-25T17:56:58.943Z,74.13
2019-05-25T18:02:16.560Z,74.74
2019-05-25T18:04:45.918Z,75.12
2019-05-25T18:07:15.282Z,75.03
2019-05-25T18:09:44.623Z,75.11
2019-05-25T18:12:14.087Z,75.72
2019-05-25T18:14:43.424Z,75.91
2019-05-25T18:20:22.195Z,77.50
2019-05-25T18:22:51.697Z,78.89
2019-05-25T18:25:22.020Z,78.67
2019-05-25T18:27:51.373Z,78.60
2019-05-25T18:31:00.075Z,78.96
2019-05-25T18:36:04.056Z,78.18
2019-05-25T18:38:33.402Z,78.44
2019-05-25T18:41:02.702Z,78.81
2019-05-25T18:46:08.181Z,78.57
2019-05-25T18:48:37.631Z,79.21
2019-05-25T18:51:06.948Z,79.90
2019-05-25T18:53:36.444Z,79.64
2019-05-25T18:56:05.903Z,79.77
2019-05-25T18:58:35.189Z,80.99
2019-05-25T19:01:04.517Z,80.75
2019-05-25T19:03:33.896Z,81.58
2019-05-25T19:06:03.189Z,81.97
2019-05-25T19:11:07.013Z,81.86
2019-05-25T19:13:36.340Z,81.53
2019-05-25T19:16:08.678Z,81.81
2019-05-25T19:18:38.078Z,81.97
2019-05-25T19:21:07.408Z,82.56
2019-05-25T19:23:36.746Z,83.49
2019-05-25T19:26:06.070Z,83.49
2019-05-25T19:28:35.440Z,82.92
2019-05-25T19:31:04.753Z,82.63
2019-05-25T19:33:34.058Z,82.58
2019-05-25T19:36:03.440Z,82.82
2019-05-25T19:38:32.748Z,82.58
2019-05-25T19:41:02.085Z,82.65
2019-05-25T19:43:31.425Z,83.48
2019-05-25T19:46:00.750Z,83.10
2019-05-25T19:48:30.067Z,83.71
2019-05-25T19:50:59.373Z,84.43
2019-05-25T19:53:28.686Z,83.99
2019-05-25T19:55:58.000Z,84.24
2019-05-25T19:58:27.304Z,83.63
2019-05-25T20:00:56.621Z,83.76
2019-05-25T20:03:25.982Z,83.20
2019-05-25T20:05:55.284Z,83.69
2019-05-25T20:08:24.592Z,83.32
2019-05-25T20:10:55.599Z,84.24
2019-05-25T20:13:24.902Z,84.53
2019-05-25T20:15:54.219Z,84.02
2019-05-25T20:18:23.532Z,84.29
2019-05-25T20:20:52.880Z,84.30
2019-05-25T20:23:22.217Z,85.52
2019-05-25T20:25:51.527Z,84.83
2019-05-25T20:28:20.890Z,85.98
2019-05-25T20:30:50.196Z,86.43
2019-05-25T20:33:27.509Z,85.92
2019-05-25T20:35:50.546Z,86.03
2019-05-25T20:38:19.854Z,86.40
2019-05-25T20:40:49.192Z,86.47
2019-05-25T20:43:18.489Z,86.93
2019-05-25T20:45:47.816Z,86.78
2019-05-25T20:48:17.133Z,87.08
2019-05-25T20:51:05.485Z,87.71
2019-05-25T20:53:34.801Z,87.81
2019-05-25T20:56:04.116Z,86.86
2019-05-25T20:58:33.431Z,85.36
2019-05-25T21:01:02.856Z,83.64
2019-05-25T21:03:32.179Z,83.34
2019-05-25T21:06:01.483Z,83.82
2019-05-25T21:08:30.805Z,84.47
2019-05-25T21:11:00.144Z,85.15
2019-05-25T21:13:29.474Z,85.79
2019-05-25T21:15:58.978Z,85.28
2019-05-25T21:18:28.294Z,85.48
2019-05-25T21:20:57.615Z,85.79
2019-05-25T21:23:26.962Z,85.59
2019-05-25T21:25:56.276Z,85.63
2019-05-25T21:28:25.576Z,86.48
2019-05-25T21:30:54.871Z,86.98
2019-05-25T21:33:24.206Z,86.96
2019-05-25T21:36:07.593Z,86.65
2019-05-25T21:38:24.528Z,86.93
2019-05-25T21:40:53.837Z,85.95
2019-05-25T21:43:23.162Z,86.43
2019-05-25T21:45:52.464Z,86.76
2019-05-25T21:48:21.748Z,86.71
2019-05-25T21:50:51.056Z,85.96
2019-05-25T21:53:20.388Z,86.27
2019-05-25T21:55:49.740Z,86.63
2019-05-25T21:58:19.130Z,87.83
2019-05-25T22:03:57.119Z,89.56
2019-05-25T22:06:45.392Z,89.60
2019-05-25T22:09:14.695Z,89.24
2019-05-25T22:11:44.061Z,89.49
2019-05-25T22:14:13.366Z,89.01
2019-05-25T22:16:42.672Z,88.31
2019-05-25T22:19:11.978Z,87.85
2019-05-25T22:21:41.268Z,87.97
2019-05-25T22:26:45.942Z,88.34
2019-05-25T22:29:15.267Z,89.46
2019-05-25T22:31:46.680Z,89.36
2019-05-25T22:34:15.969Z,90.08
2019-05-25T22:36:45.303Z,89.98
2019-05-25T22:39:14.648Z,89.72
2019-05-25T22:41:43.946Z,90.86
2019-05-25T22:44:13.252Z,90.56
2019-05-25T22:49:18.611Z,91.52
2019-05-25T22:51:47.920Z,91.33
2019-05-25T22:54:17.580Z,90.10
2019-05-25T22:56:46.896Z,90.12
2019-05-25T22:59:16.194Z,89.18
2019-05-25T23:01:45.477Z,88.92
2019-05-25T23:04:14.812Z,88.63
2019-05-25T23:06:57.216Z,88.80
2019-05-25T23:09:15.147Z,89.29
2019-05-25T23:11:44.528Z,88.72
2019-05-25T23:14:13.779Z,88.27
2019-05-25T23:16:43.093Z,88.01
2019-05-25T23:19:12.393Z,87.62
2019-05-25T23:21:41.679Z,87.36
2019-05-25T23:24:10.979Z,87.90
2019-05-25T23:26:40.279Z,87.46
2019-05-25T23:29:09.591Z,88.52
2019-05-25T23:31:38.878Z,89.06
2019-05-25T23:34:27.129Z,89.14
2019-05-25T23:37:11.697Z,89.23
2019-05-25T23:39:27.448Z,89.45
2019-05-25T23:41:56.725Z,89.57
2019-05-25T23:44:26.021Z,89.75
2019-05-25T23:46:55.341Z,89.68
2019-05-25T23:49:24.631Z,89.62
2019-05-25T23:51:53.935Z,90.77
2019-05-25T23:54:23.244Z,90.39
2019-05-25T23:56:52.559Z,91.11
2019-05-25T23:59:21.895Z,91.66
